Decoded Metar for KZPH ( in ) (IATA:) | Meteo·Mobile Aviation Weather
aviador You're here:

KZPH Decoded Metar

in
Report Time2018-11-18 01:15:00
UTC Time2018-11-18 01:24:48
Flight Rules vfr VFR
WindCalm
Visibility9999 m
Phenomena:N/A
Clouds:Scattered 050 Hf
Expected CloudBase > 800 ft AGL from Temp-Dew spread
CeilingNone
Temp14°C
Dew Point12°C (88% RH)
QNH1021 hPa
Raw Report
METAR KZPH 180115Z AUTO 00000KT 10SM SCT050 14/12 A3016 RMK AO2 T01420123=

Extra information for KZPH:More info

Social comments